Time;durP1;ratioP1;P1;durP2;ratioP2;P2;SDS_P1;SDS_P2;PMS_P1;PMS_P2;Temp;Humidity;BMP_temperature;BMP_pressure;BME280_temperature;BME280_humidity;BME280_pressure;Samples;Min_cycle;Max_cycle;Signal;HPM_P1;HPM_P2
2022/07/24 00:02:18;;;;;;;9.45;7.60;;;;;;;32.40;32.34;101052.84;4946174;29;20059;-80
2022/07/24 00:04:46;;;;;;;10.60;8.32;;;;;;;31.87;32.15;100965.06;4946193;29;20413;-80
2022/07/24 00:07:14;;;;;;;7.97;7.25;;;;;;;32.60;32.25;101074.06;4931838;29;20115;-79
2022/07/24 00:09:41;;;;;;;13.68;7.25;;;;;;;32.59;31.87;101077.94;4946339;29;20058;-80
2022/07/24 00:12:08;;;;;;;10.30;7.43;;;;;;;32.56;32.53;101082.88;4946751;29;20067;-81
2022/07/24 00:14:35;;;;;;;9.77;6.60;;;;;;;32.51;32.52;101087.53;4930244;29;20051;-80
2022/07/24 00:17:01;;;;;;;10.38;6.97;;;;;;;31.94;32.33;100993.09;4945991;29;20480;-82
2022/07/24 00:19:28;;;;;;;10.02;7.63;;;;;;;32.38;32.74;101080.59;4931406;29;20090;-81
2022/07/24 00:21:57;;;;;;;10.80;6.82;;;;;;;31.80;32.95;100995.53;4946302;29;20055;-81
2022/07/24 00:24:23;;;;;;;13.18;8.68;;;;;;;32.46;32.35;101088.31;4946006;29;20075;-80
2022/07/24 00:26:50;;;;;;;8.45;7.55;;;;;;;31.48;32.47;100933.41;4945918;29;20051;-80
2022/07/24 00:29:17;;;;;;;11.60;7.10;;;;;;;32.15;32.93;101043.47;4928476;29;20048;-82
2022/07/24 00:31:44;;;;;;;10.43;7.57;;;;;;;32.20;32.68;101051.72;4926978;29;20480;-80
2022/07/24 00:34:10;;;;;;;10.85;7.15;;;;;;;32.31;32.76;101080.88;4911296;29;20531;-82
2022/07/24 00:36:37;;;;;;;10.63;7.60;;;;;;;32.01;33.48;101045.06;4926480;29;20540;-80
2022/07/24 00:39:03;;;;;;;10.48;7.78;;;;;;;32.21;32.80;101093.72;4911418;29;20123;-80
2022/07/24 00:41:31;;;;;;;8.57;6.88;;;;;;;31.62;33.39;101009.72;4912923;29;20147;-82
2022/07/24 00:44:10;;;;;;;7.70;6.22;;;;;;;31.69;33.43;101004.81;4912614;29;20120;-81
2022/07/24 00:46:39;;;;;;;8.32;7.53;;;;;;;32.22;33.47;101089.91;4927662;29;20598;-82
2022/07/24 00:49:09;;;;;;;9.00;7.68;;;;;;;32.12;33.42;101075.03;4927089;29;20052;-81
2022/07/24 00:51:46;;;;;;;9.90;8.07;;;;;;;32.25;33.57;101094.84;4911939;29;20062;-80
2022/07/24 00:54:13;;;;;;;9.75;8.73;;;;;;;31.38;33.85;100966.22;4925515;29;20044;-80
2022/07/24 00:56:42;;;;;;;11.15;7.22;;;;;;;32.09;33.37;101072.84;4930981;29;20056;-81
2022/07/24 00:59:09;;;;;;;7.88;6.88;;;;;;;31.87;33.79;101051.03;4944929;28;20467;-81
2022/07/24 01:01:36;;;;;;;11.00;7.20;;;;;;;31.98;33.90;101090.34;4929159;29;20130;-81
2022/07/24 01:04:03;;;;;;;10.43;8.05;;;;;;;31.01;33.94;100923.25;4945194;29;20051;-81
2022/07/24 01:06:30;;;;;;;8.18;7.43;;;;;;;31.86;34.25;101065.00;4945322;29;20141;-81
2022/07/24 01:08:57;;;;;;;11.10;7.95;;;;;;;31.97;34.33;101082.38;4930669;29;20067;-80
2022/07/24 01:11:25;;;;;;;12.52;7.85;;;;;;;31.88;34.26;101087.53;4929107;29;20051;-80
2022/07/24 01:13:52;;;;;;;9.60;7.20;;;;;;;31.66;34.73;101050.09;4930716;29;20451;-80
2022/07/24 01:16:18;;;;;;;10.18;7.70;;;;;;;31.78;34.63;101085.56;4945251;29;20052;-80
2022/07/24 01:18:45;;;;;;;9.57;8.25;;;;;;;31.28;34.92;101021.84;4929400;29;20542;-81
2022/07/24 01:21:12;;;;;;;12.60;8.32;;;;;;;31.11;35.00;100977.31;4929092;29;20111;-81
2022/07/24 01:23:38;;;;;;;13.38;8.38;;;;;;;31.12;35.00;100984.47;4944942;29;20499;-80
2022/07/24 01:26:08;;;;;;;12.93;7.03;;;;;;;31.91;34.61;101101.53;4929297;29;20440;-81
2022/07/24 01:28:36;;;;;;;12.00;8.23;;;;;;;31.72;35.17;101081.13;4929563;29;20737;-80
2022/07/24 01:31:03;;;;;;;14.63;8.02;;;;;;;31.75;35.32;101091.59;4912307;29;20084;-80
2022/07/24 01:33:30;;;;;;;10.30;7.78;;;;;;;31.52;35.06;101055.22;4911117;29;20052;-80
2022/07/24 01:35:57;;;;;;;12.85;8.15;;;;;;;31.73;34.93;101100.09;4925993;29;20191;-80
2022/07/24 01:38:24;;;;;;;10.07;7.32;;;;;;;31.70;35.45;101100.63;4910002;29;20060;-80
2022/07/24 01:40:50;;;;;;;8.45;6.95;;;;;;;31.09;35.50;101001.44;4925901;29;20231;-80
2022/07/24 01:43:17;;;;;;;14.43;9.18;;;;;;;31.42;35.60;101062.56;4911456;29;20056;-80
2022/07/24 01:45:44;;;;;;;10.68;7.78;;;;;;;31.60;35.87;101094.22;4910170;29;20067;-80
2022/07/24 01:48:11;;;;;;;9.57;7.50;;;;;;;31.19;35.46;101023.47;4911110;29;20143;-80
2022/07/24 01:50:37;;;;;;;9.70;7.35;;;;;;;31.03;35.99;101006.06;4909995;29;20508;-80
2022/07/24 01:53:04;;;;;;;13.63;7.97;;;;;;;31.64;36.05;101090.69;4914310;29;20523;-79
2022/07/24 01:55:31;;;;;;;9.95;7.45;;;;;;;31.73;35.91;101094.59;4944473;29;20094;-80
2022/07/24 01:57:58;;;;;;;12.00;8.43;;;;;;;31.64;35.96;101085.19;4928884;29;20064;-80
2022/07/24 02:00:25;;;;;;;9.60;7.10;;;;;;;31.52;36.21;101087.31;4929884;29;20420;-80
2022/07/24 02:02:51;;;;;;;9.00;8.07;;;;;;;31.47;36.39;101090.84;4944400;29;20059;-81
2022/07/24 02:05:18;;;;;;;9.18;7.05;;;;;;;30.59;36.34;100954.19;4928367;29;20060;-81
2022/07/24 02:07:58;;;;;;;12.80;7.72;;;;;;;31.49;36.68;101104.31;4928343;29;20044;-81
2022/07/24 02:10:25;;;;;;;10.57;8.88;;;;;;;31.36;36.83;101102.81;4929871;29;20060;-80
2022/07/24 02:12:52;;;;;;;10.55;7.43;;;;;;;31.17;37.26;101085.97;4933754;29;20062;-81
2022/07/24 02:15:19;;;;;;;10.65;8.00;;;;;;;31.27;37.16;101107.16;4948226;29;20055;-81
2022/07/24 02:17:50;;;;;;;11.52;8.15;;;;;;;31.16;37.53;101095.25;4932368;29;20063;-81
2022/07/24 02:20:17;;;;;;;13.18;9.18;;;;;;;30.72;37.43;101010.44;4948303;29;20122;-80
2022/07/24 02:22:44;;;;;;;14.73;8.40;;;;;;;31.00;37.60;101060.59;4948773;29;20103;-80
2022/07/24 02:25:11;;;;;;;12.27;8.52;;;;;;;31.14;37.22;101059.03;4932898;29;20106;-81
2022/07/24 02:27:38;;;;;;;10.02;7.63;;;;;;;31.08;37.44;101058.19;4932348;29;20563;-81
2022/07/24 02:30:08;;;;;;;9.57;8.48;;;;;;;29.98;37.36;100896.09;4924534;29;20044;-81
2022/07/24 02:32:34;;;;;;;13.52;9.07;;;;;;;31.11;37.65;101088.91;4913497;29;20072;-80
2022/07/24 02:35:01;;;;;;;10.52;7.65;;;;;;;30.87;37.94;101056.38;4913270;29;20477;-80
2022/07/24 02:37:35;;;;;;;11.90;8.90;;;;;;;31.17;37.80;101093.34;4913203;29;20052;-80
2022/07/24 02:40:01;;;;;;;11.48;8.02;;;;;;;31.21;37.32;101081.59;4914401;29;20111;-81
2022/07/24 02:42:29;;;;;;;13.25;9.32;;;;;;;31.08;37.52;101071.09;4913361;29;20056;-81
2022/07/24 02:44:56;;;;;;;10.82;8.02;;;;;;;31.31;37.43;101119.22;4914280;29;20059;-80
2022/07/24 02:47:22;;;;;;;11.63;8.30;;;;;;;31.05;37.72;101099.84;4913049;29;20048;-81
2022/07/24 02:49:49;;;;;;;10.48;8.80;;;;;;;31.11;37.92;101122.66;4928784;29;20056;-82
2022/07/24 02:52:15;;;;;;;9.20;7.68;;;;;;;31.03;38.16;101123.13;4913143;29;20063;-82
2022/07/24 02:54:42;;;;;;;12.20;7.97;;;;;;;30.64;38.38;101063.00;4930800;29;20095;-81
2022/07/24 02:57:09;;;;;;;10.05;7.97;;;;;;;31.02;38.33;101113.22;4948329;29;20052;-81
2022/07/24 02:59:35;;;;;;;12.82;8.27;;;;;;;30.81;38.38;101098.50;4933157;29;20432;-80
2022/07/24 03:02:02;;;;;;;11.02;8.93;;;;;;;30.92;38.64;101129.59;4933195;29;20052;-80
2022/07/24 03:04:29;;;;;;;10.93;8.20;;;;;;;30.81;38.63;101126.72;4932010;29;20110;-80
2022/07/24 03:06:57;;;;;;;10.82;8.43;;;;;;;30.66;38.00;101091.78;4947063;29;20086;-80
2022/07/24 03:09:24;;;;;;;9.10;8.20;;;;;;;30.04;37.66;100997.16;4931536;29;20055;-81
2022/07/24 03:11:51;;;;;;;17.13;8.27;;;;;;;30.85;37.93;101124.31;4946485;29;20263;-80
2022/07/24 03:14:17;;;;;;;12.20;8.63;;;;;;;30.77;37.88;101125.59;4931108;29;20070;-80
2022/07/24 03:16:44;;;;;;;10.02;8.75;;;;;;;30.81;37.72;101132.22;4930617;29;20052;-81
2022/07/24 03:19:11;;;;;;;13.07;9.07;;;;;;;30.19;37.86;101031.25;4931342;29;20385;-80
2022/07/24 03:21:37;;;;;;;9.23;8.02;;;;;;;30.79;37.85;101128.91;4929706;29;20060;-81
2022/07/24 03:24:13;;;;;;;12.45;8.43;;;;;;;30.75;38.05;101141.47;4930987;29;20126;-81
2022/07/24 03:26:40;;;;;;;11.98;9.15;;;;;;;30.53;38.37;101130.53;4946775;29;20115;-81
2022/07/24 03:29:06;;;;;;;14.00;8.07;;;;;;;30.59;38.42;101153.34;4930348;29;20087;-81
2022/07/24 03:31:34;;;;;;;11.15;9.23;;;;;;;29.88;38.62;101063.75;4911986;29;20055;-81
2022/07/24 03:34:01;;;;;;;17.95;9.27;;;;;;;30.44;38.51;101154.84;4912182;29;20052;-82
2022/07/24 03:36:29;;;;;;;9.65;8.75;;;;;;;30.00;38.85;101089.09;4927950;29;20055;-80
2022/07/24 03:38:56;;;;;;;11.32;9.75;;;;;;;30.36;39.15;101163.47;4912021;29;20465;-80
2022/07/24 03:41:22;;;;;;;12.85;9.05;;;;;;;30.36;39.14;101168.13;4913655;29;20111;-81
2022/07/24 03:43:50;;;;;;;11.98;8.63;;;;;;;30.26;39.27;101143.38;4911688;29;20497;-82
2022/07/24 03:46:16;;;;;;;13.60;8.30;;;;;;;30.25;39.21;101142.53;4911998;29;20424;-81
2022/07/24 03:48:43;;;;;;;13.02;9.52;;;;;;;30.08;39.41;101122.59;4912065;29;20056;-80
2022/07/24 03:51:10;;;;;;;13.07;9.23;;;;;;;29.76;39.20;101071.22;4912024;29;20051;-80
2022/07/24 03:53:37;;;;;;;13.20;8.85;;;;;;;30.32;39.20;101156.03;4920215;29;20051;-81
2022/07/24 03:56:07;;;;;;;14.43;8.45;;;;;;;30.38;38.93;101166.78;4930773;29;20058;-80
2022/07/24 03:58:34;;;;;;;13.65;8.65;;;;;;;30.36;39.05;101163.47;4930521;29;20448;-80
2022/07/24 04:01:05;;;;;;;;;;;;;;;30.35;39.46;101166.50;4946320;29;20095;-80
2022/07/24 04:03:32;;;;;;;9.52;8.15;;;;;;;29.96;39.06;101093.41;4930288;29;19934;-81
2022/07/24 04:06:03;;;;;;;11.55;9.30;;;;;;;29.97;39.24;101094.22;4946340;29;20064;-81
2022/07/24 04:08:31;;;;;;;9.70;8.70;;;;;;;30.39;38.95;101163.00;4931161;29;20058;-81
2022/07/24 04:10:57;;;;;;;13.77;9.30;;;;;;;30.41;39.06;101158.06;4946537;29;20085;-80
2022/07/24 04:13:30;;;;;;;9.82;8.60;;;;;;;30.46;38.80;101162.78;4931872;29;20051;-80
2022/07/24 04:15:57;;;;;;;10.82;8.80;;;;;;;30.53;38.58;101157.09;4946456;29;20063;-81
2022/07/24 04:18:24;;;;;;;8.75;7.95;;;;;;;30.56;38.47;101149.22;4944426;29;20558;-82
2022/07/24 04:20:51;;;;;;;13.05;8.68;;;;;;;30.60;38.64;101158.56;4928872;29;20062;-79
2022/07/24 04:23:18;;;;;;;11.70;8.20;;;;;;;30.01;38.43;101057.88;4945242;29;20051;-80
2022/07/24 04:25:45;;;;;;;13.38;8.88;;;;;;;30.65;38.49;101147.66;4929771;29;20127;-80
2022/07/24 04:28:13;;;;;;;15.93;8.68;;;;;;;30.28;38.44;101100.94;4930506;29;20067;-82
2022/07/24 04:30:39;;;;;;;14.60;9.75;;;;;;;30.50;38.75;101152.16;4915119;29;20055;-78
2022/07/24 04:33:06;;;;;;;9.05;7.80;;;;;;;30.42;38.76;101148.78;4910128;29;20204;-80
2022/07/24 04:35:33;;;;;;;17.08;9.93;;;;;;;30.53;39.00;101173.53;4925626;29;20531;-81
2022/07/24 04:37:59;;;;;;;16.63;10.05;;;;;;;30.44;39.05;101160.31;4910133;29;20060;-78
2022/07/24 04:40:26;;;;;;;19.70;11.25;;;;;;;30.45;39.37;101167.44;4911492;29;20048;-79
2022/07/24 04:42:53;;;;;;;9.73;8.65;;;;;;;30.44;39.54;101160.31;4911884;29;20048;-78
2022/07/24 04:45:19;;;;;;;12.27;8.48;;;;;;;30.27;39.47;101139.53;4920516;29;20328;-80
2022/07/24 04:47:46;;;;;;;10.73;9.63;;;;;;;30.49;39.92;101172.38;4919999;29;20059;-81
2022/07/24 04:50:13;;;;;;;11.15;9.15;;;;;;;30.41;39.58;101155.31;4911187;29;20272;-80
2022/07/24 04:52:40;;;;;;;11.13;9.10;;;;;;;30.57;39.88;101180.19;4911257;29;20441;-80
2022/07/24 04:55:09;;;;;;;10.75;9.68;;;;;;;30.61;40.14;101181.31;4929693;29;20460;-79
2022/07/24 04:57:36;;;;;;;12.15;9.98;;;;;;;30.55;39.53;101171.38;4944795;29;20051;-80
2022/07/24 05:00:06;;;;;;;16.80;9.85;;;;;;;30.60;39.91;101188.69;4929905;29;20051;-81
2022/07/24 05:02:33;;;;;;;8.77;7.83;;;;;;;30.16;39.85;101102.97;4927901;29;20084;-81
2022/07/24 05:05:00;;;;;;;11.10;8.50;;;;;;;30.19;39.73;101099.72;4928648;29;20166;-80
2022/07/24 05:07:26;;;;;;;15.60;9.00;;;;;;;30.72;39.87;101185.00;4933132;29;20044;-82
2022/07/24 05:09:57;;;;;;;11.13;9.38;;;;;;;30.53;40.08;101168.88;4930588;29;20533;-80
2022/07/24 05:12:25;;;;;;;11.38;9.85;;;;;;;30.60;39.86;101157.75;4944249;29;20127;-81
2022/07/24 05:14:52;;;;;;;10.50;8.15;;;;;;;30.92;39.57;101187.97;4944658;29;20058;-82
2022/07/24 05:17:18;;;;;;;16.10;9.93;;;;;;;30.60;39.81;101144.03;4944489;29;20091;-81
2022/07/24 05:19:45;;;;;;;11.93;9.20;;;;;;;30.67;40.39;101185.78;4929445;29;20329;-81
2022/07/24 05:22:12;;;;;;;17.42;10.10;;;;;;;30.63;40.94;101174.50;4944121;29;20055;-80
2022/07/24 05:24:38;;;;;;;12.25;9.77;;;;;;;30.70;40.30;101178.94;4927698;29;20115;-80
2022/07/24 05:27:05;;;;;;;9.63;8.38;;;;;;;30.69;40.77;101183.59;4929193;29;20572;-80
2022/07/24 05:29:38;;;;;;;13.13;9.50;;;;;;;30.69;40.18;101175.38;4936923;29;20056;-82
2022/07/24 05:32:07;;;;;;;16.13;8.90;;;;;;;30.64;39.69;101145.19;4908857;29;20594;-80
2022/07/24 05:34:34;;;;;;;12.20;9.65;;;;;;;30.97;39.44;101181.72;4924248;29;20048;-81
2022/07/24 05:37:07;;;;;;;12.48;9.55;;;;;;;30.80;39.84;101174.41;4908365;29;20155;-80
2022/07/24 05:39:34;;;;;;;10.68;8.75;;;;;;;30.96;40.26;101188.31;4908255;29;20055;-80
2022/07/24 05:42:00;;;;;;;13.80;10.13;;;;;;;30.95;40.41;101192.13;4909043;29;20048;-78
2022/07/24 05:44:27;;;;;;;13.38;9.50;;;;;;;30.86;40.03;101176.16;4907613;29;20481;-81
2022/07/24 05:46:54;;;;;;;12.10;9.00;;;;;;;31.05;39.73;101197.72;4909129;29;20076;-80
2022/07/24 05:49:20;;;;;;;11.02;9.63;;;;;;;30.71;40.12;101140.34;4924919;29;20500;-79
2022/07/24 05:51:47;;;;;;;13.63;9.52;;;;;;;30.62;39.54;101111.75;4909526;29;20059;-80
2022/07/24 05:54:14;;;;;;;13.25;8.98;;;;;;;30.44;39.56;101077.31;4922967;29;20559;-80
2022/07/24 05:56:41;;;;;;;12.70;9.55;;;;;;;31.14;39.95;101190.66;4929595;29;20547;-80
2022/07/24 05:59:08;;;;;;;12.40;10.15;;;;;;;30.39;39.96;101069.88;4944648;29;20484;-80
2022/07/24 06:01:35;;;;;;;9.77;8.82;;;;;;;31.06;39.47;101171.94;4928656;29;20188;-82
2022/07/24 06:04:02;;;;;;;11.93;8.75;;;;;;;31.28;40.10;101200.13;4928599;29;20051;-81
2022/07/24 06:06:29;;;;;;;14.57;10.63;;;;;;;31.25;40.23;101203.41;4928554;29;20059;-80
2022/07/24 06:08:56;;;;;;;11.00;8.43;;;;;;;31.21;40.14;101180.31;4944654;29;20063;-80
2022/07/24 06:11:23;;;;;;;11.88;10.60;;;;;;;31.02;40.54;101179.88;4943984;29;20060;-80
2022/07/24 06:13:50;;;;;;;13.05;9.60;;;;;;;31.31;40.29;101207.00;4928047;29;20087;-78
2022/07/24 06:16:17;;;;;;;10.75;9.40;;;;;;;30.92;39.99;101141.38;4927247;29;20051;-80
2022/07/24 06:18:44;;;;;;;14.88;9.98;;;;;;;30.84;40.22;101128.16;4941928;29;20535;-80
2022/07/24 06:21:11;;;;;;;11.02;9.07;;;;;;;31.38;40.65;101217.78;4942533;29;20066;-80
2022/07/24 06:23:37;;;;;;;10.75;9.43;;;;;;;31.24;40.50;101195.41;4942346;29;20123;-81
2022/07/24 06:26:04;;;;;;;11.25;10.15;;;;;;;31.41;40.07;101200.81;4928559;29;20110;-81
2022/07/24 06:28:31;;;;;;;12.38;9.02;;;;;;;31.28;39.96;101180.94;4930462;29;20095;-80
2022/07/24 06:30:57;;;;;;;10.75;9.63;;;;;;;31.33;40.61;101199.34;4912463;29;20056;-80
2022/07/24 06:33:25;;;;;;;11.38;9.15;;;;;;;31.15;39.97;101144.91;4909654;29;20416;-79
2022/07/24 06:35:52;;;;;;;13.77;8.73;;;;;;;31.50;40.11;101232.16;4909098;29;20052;-79
2022/07/24 06:38:18;;;;;;;19.90;9.80;;;;;;;31.55;40.21;101232.22;4910112;29;20056;-79
2022/07/24 06:40:45;;;;;;;12.75;9.85;;;;;;;31.52;39.76;101235.50;4910017;29;20056;-81
2022/07/24 06:43:12;;;;;;;16.02;10.73;;;;;;;31.35;39.57;101201.84;4909267;29;20055;-81
2022/07/24 06:45:39;;;;;;;14.73;8.98;;;;;;;31.61;39.47;101233.94;4908810;29;20064;-80
2022/07/24 06:48:06;;;;;;;12.00;10.15;;;;;;;31.10;39.74;101156.66;4909202;29;20508;-79
2022/07/24 06:50:33;;;;;;;12.70;9.15;;;;;;;31.25;40.01;101186.94;4911184;29;20048;-80
2022/07/24 06:53:00;;;;;;;18.48;11.07;;;;;;;31.35;40.26;101180.72;4913074;29;20044;-78
2022/07/24 06:55:27;;;;;;;14.63;10.05;;;;;;;31.80;39.97;101222.53;4928367;29;20148;-79
2022/07/24 06:57:54;;;;;;;12.02;9.30;;;;;;;31.08;40.06;101103.97;4931892;29;20052;-80
2022/07/24 07:00:21;;;;;;;12.32;9.20;;;;;;;31.71;40.54;101217.53;4947448;29;20322;-80
2022/07/24 07:02:49;;;;;;;14.57;9.20;;;;;;;31.38;40.61;101152.75;4947208;29;20364;-80
2022/07/24 07:05:18;;;;;;;18.77;11.07;;;;;;;31.88;40.42;101219.31;4931908;29;20052;-80
2022/07/24 07:07:45;;;;;;;12.60;9.98;;;;;;;31.78;41.07;101211.00;4931079;29;20055;-79
2022/07/24 07:10:12;;;;;;;14.25;11.27;;;;;;;31.96;40.58;101221.56;4933409;29;20052;-79
2022/07/24 07:12:39;;;;;;;20.65;9.98;;;;;;;31.82;40.67;101201.13;4931532;29;20055;-78
2022/07/24 07:15:09;;;;;;;14.10;10.13;;;;;;;31.75;41.19;101227.97;4931703;29;20052;-80
2022/07/24 07:17:38;;;;;;;13.00;9.88;;;;;;;31.38;41.10;101174.69;4931733;29;20051;-80
2022/07/24 07:20:06;;;;;;;11.52;9.65;;;;;;;30.68;41.34;101083.28;4932549;29;20051;-80
2022/07/24 07:22:33;;;;;;;10.88;9.77;;;;;;;31.66;41.14;101216.69;4947064;29;20468;-80
2022/07/24 07:24:59;;;;;;;18.35;11.00;;;;;;;31.52;41.08;101175.13;4931565;29;20055;-80
2022/07/24 07:27:27;;;;;;;14.02;10.57;;;;;;;31.67;41.67;101204.59;4932576;29;20052;-80
2022/07/24 07:29:53;;;;;;;15.27;10.43;;;;;;;31.70;40.96;101199.44;4947648;29;20637;-81
2022/07/24 07:32:20;;;;;;;15.77;11.23;;;;;;;31.54;41.12;101181.19;4947506;29;20135;-78
2022/07/24 07:34:47;;;;;;;13.95;10.57;;;;;;;31.79;40.87;101212.66;4948350;29;20063;-81
2022/07/24 07:37:13;;;;;;;11.73;10.18;;;;;;;31.88;41.30;101222.88;4947738;29;20060;-81
2022/07/24 07:39:40;;;;;;;15.20;10.55;;;;;;;31.66;40.97;101203.78;4932141;29;20531;-80
2022/07/24 07:42:07;;;;;;;14.80;11.95;;;;;;;31.81;41.17;101205.81;4948978;29;20221;-79
2022/07/24 07:44:35;;;;;;;15.13;11.10;;;;;;;31.79;40.83;101201.66;4933240;29;20200;-81
2022/07/24 07:47:02;;;;;;;12.32;10.70;;;;;;;31.73;40.75;101176.09;4932018;29;20677;-80
2022/07/24 07:49:28;;;;;;;12.40;11.02;;;;;;;31.96;40.80;101196.88;4946658;29;20060;-81
2022/07/24 07:51:55;;;;;;;14.20;11.50;;;;;;;32.02;40.91;101209.53;4946155;29;20056;-80
2022/07/24 07:54:22;;;;;;;17.48;11.18;;;;;;;32.14;41.02;101226.66;4946524;29;20059;-81
2022/07/24 07:56:49;;;;;;;14.60;10.57;;;;;;;32.10;40.79;101217.28;4930628;29;20083;-80
2022/07/24 07:59:15;;;;;;;15.45;12.05;;;;;;;32.00;41.04;101208.16;4931796;29;20714;-80
2022/07/24 08:01:42;;;;;;;15.50;10.77;;;;;;;32.19;40.87;101216.75;4946413;29;20332;-80
2022/07/24 08:04:09;;;;;;;15.55;10.70;;;;;;;32.13;40.83;101202.19;4930796;29;20048;-79
2022/07/24 08:06:35;;;;;;;16.50;12.18;;;;;;;32.05;41.17;101177.97;4946118;29;20060;-80
2022/07/24 08:09:04;;;;;;;12.50;11.20;;;;;;;32.29;41.41;101219.59;4930893;29;20550;-79
2022/07/24 08:11:31;;;;;;;13.95;10.90;;;;;;;32.34;41.41;101214.13;4930726;29;20067;-80
2022/07/24 08:13:58;;;;;;;18.92;11.57;;;;;;;32.41;41.29;101205.63;4946002;29;20052;-80
2022/07/24 08:16:25;;;;;;;12.75;10.65;;;;;;;32.44;40.90;101205.91;4931279;29;20646;-80
2022/07/24 08:18:52;;;;;;;15.68;13.05;;;;;;;32.62;41.26;101228.53;4946148;29;20535;-79
2022/07/24 08:21:19;;;;;;;15.25;11.85;;;;;;;32.42;40.97;101171.56;4945906;29;20468;-80
2022/07/24 08:23:45;;;;;;;16.65;11.00;;;;;;;32.36;41.15;101179.78;4931284;29;20074;-80
2022/07/24 08:26:13;;;;;;;14.50;12.73;;;;;;;32.76;41.25;101229.69;4945648;29;20052;-78
2022/07/24 08:28:40;;;;;;;20.15;12.48;;;;;;;32.45;40.88;101177.31;4930102;29;20052;-79
2022/07/24 08:31:07;;;;;;;17.63;11.90;;;;;;;32.81;40.56;101229.69;4913156;29;20051;-80
2022/07/24 08:33:35;;;;;;;17.48;13.55;;;;;;;32.80;40.61;101221.75;4926947;29;20059;-81
2022/07/24 08:36:10;;;;;;;22.20;13.23;;;;;;;32.90;40.61;101230.84;4912034;29;20052;-79
2022/07/24 08:38:40;;;;;;;14.63;11.18;;;;;;;32.94;40.30;101226.47;4896724;29;20052;-80
2022/07/24 08:41:07;;;;;;;21.15;14.23;;;;;;;32.41;40.34;101132.28;4898336;29;20146;-78
2022/07/24 08:43:34;;;;;;;16.70;12.32;;;;;;;32.92;40.44;101225.91;4913539;29;20048;-79
2022/07/24 08:46:03;;;;;;;20.30;12.15;;;;;;;33.00;40.04;101214.34;4939959;29;20813;-80
2022/07/24 08:48:30;;;;;;;14.50;11.38;;;;;;;33.04;40.89;101222.09;4931229;29;20597;-80
2022/07/24 08:50:58;;;;;;;15.75;13.27;;;;;;;33.21;40.31;101230.94;4945533;29;20055;-82
2022/07/24 08:53:25;;;;;;;16.00;13.48;;;;;;;32.75;40.69;101151.06;4929700;29;20063;-80
2022/07/24 08:55:52;;;;;;;18.23;14.75;;;;;;;32.74;40.16;101147.47;4945399;29;20048;-78
2022/07/24 08:58:19;;;;;;;15.90;13.27;;;;;;;33.44;40.17;101223.25;4944876;29;20054;-79
2022/07/24 09:00:45;;;;;;;15.18;12.18;;;;;;;33.46;40.05;101230.13;4944942;29;20051;-80
2022/07/24 09:03:12;;;;;;;19.27;13.88;;;;;;;33.12;39.71;101180.31;4945304;29;20070;-81
2022/07/24 09:05:56;;;;;;;26.10;13.30;;;;;;;33.29;39.92;101233.13;4945246;28;20056;-79
2022/07/24 09:08:23;;;;;;;20.40;11.88;;;;;;;33.15;40.36;101210.00;4945600;28;20063;-81
2022/07/24 09:10:59;;;;;;;15.48;11.73;;;;;;;33.26;40.96;101214.44;4945565;29;20495;-78
2022/07/24 09:13:27;;;;;;;18.27;12.43;;;;;;;33.25;40.28;101184.44;4930964;29;20066;-80
2022/07/24 09:15:54;;;;;;;17.15;13.52;;;;;;;33.62;40.04;101217.22;4944964;29;20059;-80
2022/07/24 09:18:27;;;;;;;22.45;14.35;;;;;;;33.81;39.53;101232.09;4945842;29;20052;-79
2022/07/24 09:20:54;;;;;;;15.38;13.38;;;;;;;33.60;39.46;101175.38;4953147;28;20487;-81
2022/07/24 09:23:21;;;;;;;14.23;11.77;;;;;;;33.65;40.09;101202.09;4940292;29;20075;-79
2022/07/24 09:25:53;;;;;;;17.30;13.65;;;;;;;33.86;39.98;101228.47;4934589;29;20059;-79
2022/07/24 09:28:20;;;;;;;16.38;13.95;;;;;;;32.98;39.05;101042.47;4950955;29;20063;-81
2022/07/24 09:30:48;;;;;;;13.38;11.20;;;;;;;34.00;39.49;101218.53;4918059;29;20112;-80
2022/07/24 09:33:21;;;;;;;19.00;12.25;;;;;;;33.62;38.71;101129.97;4911159;29;20052;-80
2022/07/24 09:35:50;;;;;;;17.48;14.85;;;;;;;34.17;39.28;101218.25;4911739;29;20159;-81
2022/07/24 09:38:24;;;;;;;19.25;13.27;;;;;;;34.11;39.42;101213.88;4925224;29;20467;-81
2022/07/24 09:40:54;;;;;;;16.08;13.40;;;;;;;34.13;39.09;101200.66;4911784;29;20099;-81
2022/07/24 09:43:31;;;;;;;18.58;13.40;;;;;;;34.29;38.53;101204.16;4910278;29;20059;-81
2022/07/24 09:46:06;;;;;;;14.57;11.45;;;;;;;34.14;38.21;101188.50;4925890;29;20511;-81
2022/07/24 09:48:35;;;;;;;17.23;12.93;;;;;;;34.17;38.51;101179.66;4926113;29;20068;-81
2022/07/24 09:51:06;;;;;;;21.65;14.15;;;;;;;34.06;38.43;101167.03;4926090;29;20048;-80
2022/07/24 09:53:37;;;;;;;16.10;12.85;;;;;;;34.35;38.50;101192.03;4933489;29;20346;-81
2022/07/24 09:56:18;;;;;;;17.67;12.35;;;;;;;34.65;38.41;101217.81;4944625;29;20115;-80
2022/07/24 09:58:45;;;;;;;13.35;11.95;;;;;;;34.84;37.82;101215.25;4928967;29;20054;-79
2022/07/24 10:01:13;;;;;;;17.05;13.13;;;;;;;34.87;37.89;101214.66;4943700;29;20492;-80
2022/07/24 10:03:43;;;;;;;18.67;13.13;;;;;;;34.96;37.37;101204.69;4940984;29;20091;-80
2022/07/24 10:06:13;;;;;;;13.40;12.02;;;;;;;35.01;37.48;101171.53;4941527;29;20054;-80
2022/07/24 10:08:41;;;;;;;22.20;12.55;;;;;;;35.38;36.97;101210.75;4944594;29;20060;-81
2022/07/24 10:11:09;;;;;;;18.00;11.93;;;;;;;35.30;37.26;101201.16;4929277;29;20066;-80
2022/07/24 10:13:36;;;;;;;16.25;13.93;;;;;;;35.02;36.58;101142.84;4928435;29;20044;-81
2022/07/24 10:16:13;;;;;;;15.20;13.60;;;;;;;35.53;36.71;101205.91;4929412;29;20114;-80
2022/07/24 10:18:48;;;;;;;13.73;12.32;;;;;;;35.56;36.51;101209.22;4943412;29;20504;-81
2022/07/24 10:21:21;;;;;;;16.13;11.68;;;;;;;35.45;36.12;101167.91;4929427;29;20056;-80
2022/07/24 10:24:06;;;;;;;15.50;13.85;;;;;;;35.60;35.98;101160.63;4943512;29;20471;-80
2022/07/24 10:26:49;;;;;;;17.67;13.75;;;;;;;35.60;35.99;101149.56;4944388;29;20463;-80
2022/07/24 10:29:19;;;;;;;14.20;12.70;;;;;;;36.22;35.02;101191.16;4942186;29;20060;-81
2022/07/24 10:31:48;;;;;;;12.93;11.73;;;;;;;36.24;35.42;101202.75;4909401;29;20373;-79
2022/07/24 10:34:47;;;;;;;16.20;14.40;;;;;;;36.48;35.23;101200.78;4914574;29;20071;-80
2022/07/24 10:37:38;;;;;;;;;;;;;;;36.63;34.92;101199.81;4922632;29;20087;-81
2022/07/24 10:40:35;;;;;;;13.55;11.80;;;;;;;36.70;35.41;101200.28;4946663;28;19927;-81
2022/07/24 10:43:08;;;;;;;19.75;12.02;;;;;;;36.91;35.12;101203.53;4949069;29;20459;-80
2022/07/24 10:45:36;;;;;;;16.42;12.82;;;;;;;37.00;34.43;101203.69;4951084;29;20599;-81
2022/07/24 10:48:21;;;;;;;18.13;11.93;;;;;;;37.08;34.16;101172.59;4932946;28;20531;-82
2022/07/24 10:50:57;;;;;;;21.40;13.18;;;;;;;37.03;33.42;101144.97;4946664;29;20063;-80
2022/07/24 10:53:26;;;;;;;16.67;13.10;;;;;;;37.18;33.74;101143.94;4939750;29;20056;-80
2022/07/24 10:56:13;;;;;;;15.23;12.35;;;;;;;37.49;33.07;101194.06;4927934;29;20044;-78
2022/07/24 10:58:59;;;;;;;13.85;11.57;;;;;;;37.64;34.05;101185.50;4930098;29;20140;-80
2022/07/24 11:01:31;;;;;;;15.65;12.93;;;;;;;37.73;33.07;101162.66;4941856;29;20275;-81
2022/07/24 11:04:00;;;;;;;17.45;11.55;;;;;;;37.89;32.89;101169.53;4946349;29;20188;-80
2022/07/24 11:06:50;;;;;;;13.27;11.30;;;;;;;37.70;32.69;101121.69;4946724;29;20138;-80
2022/07/24 11:09:23;;;;;;;15.27;12.73;;;;;;;37.64;32.35;101074.72;4945248;29;20052;-80
2022/07/24 11:11:55;;;;;;;12.23;11.03;;;;;;;38.24;32.03;101167.19;4943979;29;20112;-81
2022/07/24 11:14:24;;;;;;;14.05;11.10;;;;;;;37.97;31.74;101088.47;4928646;29;20055;-82
2022/07/24 11:16:52;;;;;;;10.40;9.40;;;;;;;38.42;31.89;101149.59;4946592;29;20051;-81
2022/07/24 11:19:19;;;;;;;12.48;11.40;;;;;;;38.16;31.53;101107.78;4932519;29;20051;-81
2022/07/24 11:21:47;;;;;;;11.23;9.82;;;;;;;38.47;30.96;101162.56;4927321;29;20052;-81